createdAt,value
2023-04-16T00:00:12.141Z,25.77
2023-04-16T00:00:46.559Z,22.27
2023-04-16T00:01:18.967Z,24.38
2023-04-16T00:01:51.338Z,26.15
2023-04-16T00:02:24.678Z,23.63
2023-04-16T00:02:57.342Z,24.65
2023-04-16T00:03:29.984Z,24.10
2023-04-16T00:04:02.672Z,26.00
2023-04-16T00:04:35.415Z,24.08
2023-04-16T00:05:08.104Z,23.67
2023-04-16T00:05:40.626Z,24.88
2023-04-16T00:06:12.960Z,22.90
2023-04-16T00:06:45.288Z,21.85
2023-04-16T00:07:17.525Z,22.75
2023-04-16T00:07:51.747Z,22.43
2023-04-16T00:08:26.670Z,22.83
2023-04-16T00:08:59.196Z,22.63
2023-04-16T00:09:31.522Z,23.13
2023-04-16T00:10:04.093Z,21.65
2023-04-16T00:10:36.425Z,21.92
2023-04-16T00:11:08.770Z,24.65
2023-04-16T00:11:41.088Z,21.50
2023-04-16T00:12:13.395Z,22.45
2023-04-16T00:12:45.808Z,21.77
2023-04-16T00:13:18.135Z,20.57
2023-04-16T00:13:50.529Z,22.27
2023-04-16T00:14:22.792Z,22.13
2023-04-16T00:14:55.064Z,22.60
2023-04-16T00:15:27.406Z,23.70
2023-04-16T00:15:59.693Z,22.35
2023-04-16T00:16:32.185Z,21.52
2023-04-16T00:17:04.622Z,21.67
2023-04-16T00:17:36.965Z,22.23
2023-04-16T00:18:09.258Z,22.05
2023-04-16T00:18:41.604Z,20.87
2023-04-16T00:19:13.933Z,23.15
2023-04-16T00:19:46.183Z,20.52
2023-04-16T00:20:20.301Z,19.98
2023-04-16T00:20:53.653Z,19.63
2023-04-16T00:21:27.142Z,18.63
2023-04-16T00:21:59.491Z,18.38
2023-04-16T00:22:31.813Z,18.52
2023-04-16T00:23:04.140Z,15.25
2023-04-16T00:23:36.495Z,18.08
2023-04-16T00:24:08.822Z,17.33
2023-04-16T00:24:41.710Z,15.45
2023-04-16T00:25:14.409Z,19.30
2023-04-16T00:25:46.708Z,16.05
2023-04-16T00:26:18.977Z,16.40
2023-04-16T00:26:52.075Z,15.55
2023-04-16T00:27:24.501Z,17.02
2023-04-16T00:27:56.810Z,15.40
2023-04-16T00:28:29.259Z,16.08
2023-04-16T00:29:01.840Z,15.07
2023-04-16T00:29:35.037Z,15.50
2023-04-16T00:30:07.713Z,16.52
2023-04-16T00:30:40.252Z,16.23
2023-04-16T00:31:12.653Z,15.73
2023-04-16T00:31:44.953Z,16.15
2023-04-16T00:32:17.324Z,15.75
2023-04-16T00:32:49.744Z,16.92
2023-04-16T00:33:24.302Z,16.35
2023-04-16T00:33:56.826Z,15.05
2023-04-16T00:34:29.124Z,14.85
2023-04-16T00:35:01.466Z,15.77
2023-04-16T00:35:33.853Z,15.60
2023-04-16T00:36:06.231Z,14.82
2023-04-16T00:36:38.564Z,16.48
2023-04-16T00:37:10.974Z,15.48
2023-04-16T00:37:43.236Z,17.48
2023-04-16T00:38:15.969Z,16.08
2023-04-16T00:38:48.349Z,18.30
2023-04-16T00:39:20.664Z,17.15
2023-04-16T00:39:52.928Z,16.30
2023-04-16T00:40:27.615Z,17.47
2023-04-16T00:40:59.932Z,16.83
2023-04-16T00:41:32.392Z,16.10
2023-04-16T00:42:04.680Z,16.90
2023-04-16T00:42:38.273Z,16.50
2023-04-16T00:43:10.679Z,15.60
2023-04-16T00:43:43.834Z,14.30
2023-04-16T00:44:16.182Z,17.90
2023-04-16T00:44:48.625Z,14.93
2023-04-16T00:45:21.156Z,15.85
2023-04-16T00:45:54.290Z,16.53
2023-04-16T00:46:26.804Z,14.52
2023-04-16T00:46:59.232Z,13.27
2023-04-16T00:47:31.955Z,14.02
2023-04-16T00:48:04.765Z,14.75
2023-04-16T00:48:38.092Z,13.90
2023-04-16T00:49:11.158Z,14.43
2023-04-16T00:49:43.558Z,11.35
2023-04-16T00:50:15.992Z,13.23
2023-04-16T00:50:48.656Z,11.18
2023-04-16T00:51:21.757Z,11.00
2023-04-16T00:51:54.246Z,10.48
2023-04-16T00:52:26.829Z,11.10
2023-04-16T00:52:59.226Z,9.38
2023-04-16T00:53:32.001Z,9.60
2023-04-16T00:54:06.524Z,9.70
2023-04-16T00:54:39.494Z,10.25
2023-04-16T00:55:13.578Z,9.75
2023-04-16T00:55:46.141Z,9.43
2023-04-16T00:56:20.481Z,10.98
2023-04-16T00:56:54.087Z,10.77
2023-04-16T00:57:27.244Z,11.02
2023-04-16T00:57:59.494Z,10.25
2023-04-16T00:58:32.349Z,12.48
2023-04-16T00:59:04.689Z,11.88
2023-04-16T00:59:37.083Z,10.52
2023-04-16T01:00:10.188Z,10.35
2023-04-16T01:00:42.466Z,9.02
2023-04-16T01:01:14.790Z,7.45
2023-04-16T01:01:47.098Z,7.60
2023-04-16T01:02:19.733Z,8.60
2023-04-16T01:02:52.527Z,8.35
2023-04-16T01:03:29.974Z,8.13
2023-04-16T01:04:02.711Z,7.70
2023-04-16T01:04:36.466Z,9.02
2023-04-16T01:05:09.636Z,11.75
2023-04-16T01:05:42.402Z,7.40
2023-04-16T01:06:16.756Z,8.30
2023-04-16T01:06:49.314Z,9.05
2023-04-16T01:07:21.642Z,11.07
2023-04-16T01:07:54.441Z,8.10
2023-04-16T01:08:26.751Z,8.30
2023-04-16T01:08:59.048Z,8.88
2023-04-16T01:09:31.555Z,8.43
2023-04-16T01:10:04.283Z,8.77
2023-04-16T01:10:36.682Z,9.57
2023-04-16T01:11:09.904Z,13.20
2023-04-16T01:11:42.186Z,11.65
2023-04-16T01:12:14.640Z,11.75
2023-04-16T01:12:46.896Z,10.98
2023-04-16T01:13:19.236Z,10.87
2023-04-16T01:13:51.566Z,10.73
2023-04-16T01:14:24.416Z,11.38
2023-04-16T01:14:57.026Z,10.25
2023-04-16T01:15:29.677Z,12.55
2023-04-16T01:16:02.257Z,11.07
2023-04-16T01:16:34.628Z,10.93
2023-04-16T01:17:06.978Z,10.60
2023-04-16T01:17:39.299Z,10.40
2023-04-16T01:18:21.564Z,11.10
2023-04-16T01:18:53.974Z,11.90
2023-04-16T01:19:26.264Z,10.82
2023-04-16T01:20:00.343Z,11.55
2023-04-16T01:20:35.338Z,10.52
2023-04-16T01:21:07.849Z,11.18
2023-04-16T01:21:40.153Z,9.68
2023-04-16T01:22:12.557Z,9.40
2023-04-16T01:22:44.818Z,9.05
2023-04-16T01:23:18.765Z,10.40
2023-04-16T01:23:51.179Z,8.63
2023-04-16T01:24:23.460Z,10.60
2023-04-16T01:24:55.816Z,10.00
2023-04-16T01:25:29.041Z,9.27
2023-04-16T01:26:01.541Z,10.70
2023-04-16T01:26:33.956Z,10.88
2023-04-16T01:27:06.490Z,8.93
2023-04-16T01:27:38.789Z,10.52
2023-04-16T01:28:11.636Z,8.27
2023-04-16T01:28:44.240Z,10.43
2023-04-16T01:29:16.523Z,10.43
2023-04-16T01:29:48.848Z,10.67
2023-04-16T01:30:27.017Z,10.43
2023-04-16T01:31:09.443Z,9.68
2023-04-16T01:32:05.835Z,11.30
2023-04-16T01:32:41.639Z,10.00
2023-04-16T01:33:14.572Z,11.98
2023-04-16T01:33:46.876Z,13.10
2023-04-16T01:34:19.183Z,11.27
2023-04-16T01:34:51.485Z,11.43
2023-04-16T01:35:24.202Z,11.63
2023-04-16T01:35:56.522Z,11.57
2023-04-16T01:36:28.879Z,11.15
2023-04-16T01:37:01.208Z,12.30
2023-04-16T01:37:33.779Z,11.75
2023-04-16T01:38:07.018Z,11.18
2023-04-16T01:38:39.318Z,10.77
2023-04-16T01:39:14.473Z,11.07
2023-04-16T01:39:46.808Z,11.43
2023-04-16T01:40:19.355Z,13.20
2023-04-16T01:40:55.966Z,10.90
2023-04-16T01:41:28.336Z,12.00
2023-04-16T01:42:01.025Z,11.55
2023-04-16T01:42:33.289Z,10.90
2023-04-16T01:43:05.630Z,11.38
2023-04-16T01:43:40.030Z,10.55
2023-04-16T01:44:12.734Z,11.60
2023-04-16T01:44:47.170Z,10.40
2023-04-16T01:45:19.565Z,9.85
2023-04-16T01:45:52.824Z,11.43
2023-04-16T01:46:27.723Z,12.32
2023-04-16T01:47:00.384Z,10.87
2023-04-16T01:47:32.920Z,9.93
2023-04-16T01:48:05.588Z,10.98
2023-04-16T01:48:37.978Z,12.02
2023-04-16T01:49:10.967Z,13.30
2023-04-16T01:49:45.936Z,12.88
2023-04-16T01:50:18.850Z,11.27
2023-04-16T01:50:51.201Z,12.45
2023-04-16T01:51:24.240Z,14.32
2023-04-16T01:51:56.486Z,13.38
2023-04-16T01:52:28.825Z,12.37
2023-04-16T01:53:05.486Z,13.57
2023-04-16T01:53:37.913Z,13.18
2023-04-16T01:54:10.424Z,12.48
2023-04-16T01:54:42.917Z,11.90
2023-04-16T01:55:15.987Z,11.13
2023-04-16T01:55:48.446Z,11.93
2023-04-16T01:56:20.871Z,14.50
2023-04-16T01:56:53.173Z,13.50
2023-04-16T01:57:25.585Z,14.18
2023-04-16T01:57:58.638Z,11.43
2023-04-16T01:58:34.680Z,13.25
2023-04-16T01:59:07.182Z,12.77
2023-04-16T01:59:44.843Z,15.27
2023-04-16T02:00:17.253Z,14.23
2023-04-16T02:00:52.432Z,13.95
2023-04-16T02:01:25.053Z,16.02
2023-04-16T02:01:58.496Z,14.60
2023-04-16T02:02:30.951Z,15.60
2023-04-16T02:03:03.564Z,13.70
2023-04-16T02:03:36.317Z,13.33
2023-04-16T02:04:10.558Z,12.20
2023-04-16T02:04:45.247Z,12.55
2023-04-16T02:05:17.593Z,12.10
2023-04-16T02:05:51.553Z,13.00
2023-04-16T02:06:23.977Z,11.88
2023-04-16T02:06:56.623Z,14.80
2023-04-16T02:07:28.980Z,12.20
2023-04-16T02:08:01.796Z,11.77
2023-04-16T02:08:35.827Z,13.80
2023-04-16T02:09:08.274Z,12.07
2023-04-16T02:09:42.490Z,13.90
2023-04-16T02:10:14.803Z,13.57
2023-04-16T02:10:47.741Z,17.20
2023-04-16T02:11:20.111Z,14.75
2023-04-16T02:11:52.683Z,15.95
2023-04-16T02:12:25.556Z,16.05
2023-04-16T02:12:57.855Z,15.30
2023-04-16T02:13:30.140Z,15.05
2023-04-16T02:14:02.442Z,16.70
2023-04-16T02:14:34.761Z,18.60
2023-04-16T02:15:07.982Z,16.20
2023-04-16T02:15:40.996Z,17.88
2023-04-16T02:16:13.532Z,17.23
2023-04-16T02:16:51.046Z,17.90
2023-04-16T02:17:38.606Z,16.83
2023-04-16T02:18:15.864Z,14.05
2023-04-16T02:18:48.111Z,15.75
2023-04-16T02:19:22.213Z,15.82
2023-04-16T02:19:54.560Z,13.13
2023-04-16T02:20:26.895Z,13.83
2023-04-16T02:21:04.115Z,14.75
2023-04-16T02:21:36.637Z,11.65
2023-04-16T02:22:08.959Z,13.60
2023-04-16T02:22:41.422Z,13.07
2023-04-16T02:23:15.635Z,11.52
2023-04-16T02:23:51.810Z,11.70
2023-04-16T02:24:29.132Z,10.93
2023-04-16T02:25:02.806Z,11.13
2023-04-16T02:25:40.886Z,10.38
2023-04-16T02:26:14.794Z,10.00
2023-04-16T02:26:47.764Z,10.18
2023-04-16T02:27:22.767Z,10.57
2023-04-16T02:27:59.943Z,9.85
2023-04-16T02:28:40.958Z,9.65
2023-04-16T02:29:16.689Z,10.43
2023-04-16T02:29:54.334Z,9.27
2023-04-16T02:30:26.916Z,9.35
2023-04-16T02:30:59.933Z,8.90
2023-04-16T02:31:37.415Z,10.35
2023-04-16T02:32:10.392Z,10.07
2023-04-16T02:32:43.099Z,10.05
2023-04-16T02:33:16.101Z,9.70
2023-04-16T02:33:58.932Z,10.73
2023-04-16T02:34:31.447Z,11.00
2023-04-16T02:35:04.293Z,10.00
2023-04-16T02:35:36.811Z,9.98
2023-04-16T02:36:11.481Z,10.10
2023-04-16T02:36:43.984Z,11.18
2023-04-16T02:37:16.344Z,10.55
2023-04-16T02:37:49.064Z,11.80
2023-04-16T02:38:21.685Z,13.07
2023-04-16T02:38:54.115Z,10.88
2023-04-16T02:39:26.607Z,11.18
2023-04-16T02:39:59.344Z,10.07
2023-04-16T02:40:31.978Z,10.90
2023-04-16T02:41:05.161Z,10.95
2023-04-16T02:41:39.297Z,10.70
2023-04-16T02:42:11.571Z,9.50
2023-04-16T02:42:43.915Z,11.73
2023-04-16T02:43:16.191Z,11.83
2023-04-16T02:43:48.511Z,10.57
2023-04-16T02:44:20.781Z,10.88
2023-04-16T02:44:53.508Z,11.23
2023-04-16T02:45:25.848Z,10.00
2023-04-16T02:45:59.877Z,11.27
2023-04-16T02:46:32.170Z,11.70
2023-04-16T02:47:04.572Z,11.98
2023-04-16T02:47:36.866Z,10.40
2023-04-16T02:48:09.885Z,10.35
2023-04-16T02:48:42.365Z,11.67
2023-04-16T02:49:14.876Z,11.15
2023-04-16T02:49:47.179Z,10.95
2023-04-16T02:50:19.553Z,10.63
2023-04-16T02:50:51.911Z,10.38
2023-04-16T02:51:24.206Z,10.43
2023-04-16T02:51:56.572Z,11.70
2023-04-16T02:52:28.969Z,11.02
2023-04-16T02:53:01.231Z,12.32
2023-04-16T02:53:33.586Z,12.38
2023-04-16T02:54:06.052Z,11.63
2023-04-16T02:54:38.587Z,10.90
2023-04-16T02:55:11.419Z,12.57
2023-04-16T02:55:49.570Z,12.15
2023-04-16T02:56:22.005Z,10.70
2023-04-16T02:56:54.251Z,10.52
2023-04-16T02:57:26.640Z,10.77
2023-04-16T02:57:58.984Z,10.98
2023-04-16T02:58:31.256Z,11.13
2023-04-16T02:59:03.620Z,10.90
2023-04-16T02:59:36.035Z,11.53
2023-04-16T03:00:08.870Z,9.30
2023-04-16T03:00:41.116Z,9.98
2023-04-16T03:01:13.468Z,11.50
2023-04-16T03:01:45.988Z,11.38
2023-04-16T03:02:18.598Z,10.23
2023-04-16T03:02:51.460Z,11.18
2023-04-16T03:03:24.273Z,10.77
2023-04-16T03:03:56.867Z,10.85
2023-04-16T03:04:29.379Z,10.48
2023-04-16T03:05:02.032Z,10.20
2023-04-16T03:05:34.335Z,11.07
2023-04-16T03:06:07.055Z,10.57
2023-04-16T03:06:39.507Z,11.75
2023-04-16T03:07:13.916Z,10.50
2023-04-16T03:07:46.277Z,11.02
2023-04-16T03:08:18.546Z,11.48
2023-04-16T03:08:50.916Z,10.50
2023-04-16T03:09:23.186Z,11.52
2023-04-16T03:09:55.729Z,13.55
2023-04-16T03:10:28.432Z,11.33
2023-04-16T03:11:01.032Z,11.38
2023-04-16T03:11:33.675Z,11.45
2023-04-16T03:12:06.115Z,11.63
2023-04-16T03:12:39.381Z,12.15
2023-04-16T03:13:12.433Z,11.20
2023-04-16T03:13:44.690Z,11.63
2023-04-16T03:14:16.998Z,13.57
2023-04-16T03:14:50.972Z,12.43
2023-04-16T03:15:23.343Z,13.15
2023-04-16T03:15:55.903Z,11.60
2023-04-16T03:16:28.232Z,14.40
2023-04-16T03:17:00.809Z,12.77
2023-04-16T03:17:33.458Z,11.00
2023-04-16T03:18:06.104Z,12.25
2023-04-16T03:18:38.578Z,11.63
2023-04-16T03:19:11.052Z,12.23
2023-04-16T03:19:43.430Z,11.40
2023-04-16T03:20:17.451Z,11.48
2023-04-16T03:20:52.831Z,11.50
2023-04-16T03:21:25.238Z,11.17
2023-04-16T03:21:57.561Z,11.48
2023-04-16T03:22:29.849Z,11.30
2023-04-16T03:23:02.373Z,11.48
2023-04-16T03:23:35.988Z,12.55
2023-04-16T03:24:08.243Z,12.43
2023-04-16T03:24:40.836Z,11.40
2023-04-16T03:25:13.216Z,12.10
2023-04-16T03:25:48.150Z,11.52
2023-04-16T03:26:23.431Z,13.18
2023-04-16T03:26:57.554Z,13.07
2023-04-16T03:27:29.904Z,12.88
2023-04-16T03:28:03.940Z,15.07
2023-04-16T03:28:36.621Z,13.55
2023-04-16T03:29:09.401Z,14.05
2023-04-16T03:29:41.893Z,15.50
2023-04-16T03:30:15.284Z,14.73
2023-04-16T03:30:52.937Z,13.52
2023-04-16T03:31:25.938Z,12.07
2023-04-16T03:31:59.252Z,14.75
2023-04-16T03:32:32.050Z,14.83
2023-04-16T03:33:04.511Z,13.45
2023-04-16T03:33:37.288Z,14.95
2023-04-16T03:34:10.264Z,13.25
2023-04-16T03:34:44.254Z,14.20
2023-04-16T03:35:16.719Z,14.95
2023-04-16T03:35:55.210Z,15.95
2023-04-16T03:36:28.144Z,17.05
2023-04-16T03:37:00.979Z,15.68
2023-04-16T03:37:33.718Z,14.45
2023-04-16T03:38:06.082Z,15.37
2023-04-16T03:38:38.590Z,16.92
2023-04-16T03:39:11.192Z,16.08
2023-04-16T03:39:43.781Z,15.68
2023-04-16T03:40:17.085Z,16.70
2023-04-16T03:40:49.352Z,17.52
2023-04-16T03:41:21.890Z,15.45
2023-04-16T03:41:54.324Z,17.10
2023-04-16T03:42:27.271Z,15.45
2023-04-16T03:42:59.590Z,17.42
2023-04-16T03:43:33.180Z,16.03
2023-04-16T03:44:05.691Z,16.58
2023-04-16T03:44:38.989Z,16.73
2023-04-16T03:45:11.768Z,17.45
2023-04-16T03:45:45.572Z,16.58
2023-04-16T03:46:18.389Z,16.38
2023-04-16T03:46:51.170Z,17.50
2023-04-16T03:47:23.634Z,16.38
2023-04-16T03:47:59.429Z,15.45
2023-04-16T03:48:31.962Z,17.02
2023-04-16T03:49:04.247Z,16.63
2023-04-16T03:49:36.626Z,17.15
2023-04-16T03:50:09.158Z,18.98
2023-04-16T03:50:45.147Z,18.60
2023-04-16T03:51:17.496Z,17.10
2023-04-16T03:51:49.910Z,17.92
2023-04-16T03:52:23.410Z,17.70
2023-04-16T03:52:55.771Z,17.20
2023-04-16T03:53:28.137Z,17.58
2023-04-16T03:54:00.494Z,18.20
2023-04-16T03:54:33.854Z,16.70
2023-04-16T03:55:25.437Z,17.40
2023-04-16T03:55:58.099Z,17.08
2023-04-16T03:56:30.753Z,15.43
2023-04-16T03:57:03.210Z,16.80
2023-04-16T03:57:35.527Z,18.98
2023-04-16T03:58:13.699Z,16.52
2023-04-16T03:58:45.974Z,15.93
2023-04-16T03:59:18.658Z,19.38
2023-04-16T03:59:50.987Z,17.48
2023-04-16T04:00:24.067Z,16.87
2023-04-16T04:01:05.250Z,16.67
2023-04-16T04:01:37.838Z,16.48
2023-04-16T04:02:10.554Z,15.85
2023-04-16T04:02:43.164Z,17.38
2023-04-16T04:03:22.767Z,19.00
2023-04-16T04:03:55.925Z,25.73
2023-04-16T04:04:28.460Z,26.20
2023-04-16T04:05:00.934Z,26.88
2023-04-16T04:05:37.765Z,25.05
2023-04-16T04:06:10.201Z,21.70
2023-04-16T04:06:42.967Z,20.55
2023-04-16T04:07:16.265Z,17.50
2023-04-16T04:07:48.668Z,17.67
2023-04-16T04:08:21.033Z,19.48
2023-04-16T04:08:53.765Z,19.65
2023-04-16T04:09:26.442Z,20.38
2023-04-16T04:09:58.863Z,20.83
2023-04-16T04:10:34.364Z,21.08
2023-04-16T04:11:07.890Z,19.55
2023-04-16T04:11:41.123Z,22.40
2023-04-16T04:12:14.213Z,21.13
2023-04-16T04:12:48.426Z,19.65
2023-04-16T04:13:20.953Z,19.52
2023-04-16T04:13:54.231Z,17.27
2023-04-16T04:14:26.506Z,19.70
2023-04-16T04:14:58.859Z,19.98
2023-04-16T04:15:32.684Z,20.27
2023-04-16T04:16:05.760Z,21.30
2023-04-16T04:16:38.212Z,19.42
2023-04-16T04:17:10.603Z,19.37
2023-04-16T04:17:43.067Z,19.95
2023-04-16T04:18:15.475Z,19.13
2023-04-16T04:18:49.112Z,17.75
2023-04-16T04:19:21.475Z,19.25
2023-04-16T04:20:01.331Z,16.73
2023-04-16T04:20:39.338Z,16.67
2023-04-16T04:21:11.832Z,18.25
2023-04-16T04:21:44.612Z,17.70
2023-04-16T04:22:16.858Z,17.55
2023-04-16T04:22:50.075Z,18.27
2023-04-16T04:23:23.096Z,16.67
2023-04-16T04:23:56.204Z,17.38
2023-04-16T04:24:28.830Z,15.75
2023-04-16T04:25:01.517Z,18.50
2023-04-16T04:25:36.191Z,16.90
2023-04-16T04:26:08.694Z,16.45
2023-04-16T04:26:41.082Z,18.63
2023-04-16T04:27:13.494Z,16.80
2023-04-16T04:27:46.227Z,16.33
2023-04-16T04:28:18.562Z,16.70
2023-04-16T04:28:51.113Z,15.82
2023-04-16T04:29:24.172Z,17.75
2023-04-16T04:29:56.832Z,17.15
2023-04-16T04:30:29.876Z,16.88
2023-04-16T04:31:02.231Z,17.33
2023-04-16T04:31:36.466Z,15.45
2023-04-16T04:32:08.826Z,16.48
2023-04-16T04:32:41.553Z,15.95
2023-04-16T04:33:14.496Z,17.48
2023-04-16T04:33:47.653Z,17.67
2023-04-16T04:34:19.908Z,16.45
2023-04-16T04:34:52.621Z,17.08
2023-04-16T04:35:25.726Z,16.70
2023-04-16T04:35:58.632Z,17.13
2023-04-16T04:36:31.438Z,15.27
2023-04-16T04:37:04.046Z,17.42
2023-04-16T04:37:36.384Z,16.80
2023-04-16T04:38:22.194Z,15.40
2023-04-16T04:38:55.717Z,18.77
2023-04-16T04:39:28.319Z,20.27
2023-04-16T04:40:00.892Z,18.15
2023-04-16T04:40:33.174Z,16.65
2023-04-16T04:41:06.319Z,17.45
2023-04-16T04:41:41.592Z,18.15
2023-04-16T04:42:13.945Z,18.33
2023-04-16T04:42:46.483Z,20.95
2023-04-16T04:43:21.885Z,19.48
2023-04-16T04:43:56.015Z,21.30
2023-04-16T04:44:28.362Z,21.10
2023-04-16T04:45:00.806Z,20.70
2023-04-16T04:45:35.980Z,20.60
2023-04-16T04:46:10.286Z,21.80
2023-04-16T04:46:42.685Z,16.55
2023-04-16T04:47:15.350Z,17.10
2023-04-16T04:47:47.836Z,18.52
2023-04-16T04:48:26.381Z,17.75
2023-04-16T04:48:58.826Z,18.30
2023-04-16T04:49:31.620Z,17.73
2023-04-16T04:50:04.132Z,17.75
2023-04-16T04:50:38.052Z,18.77
2023-04-16T04:51:10.494Z,17.67
2023-04-16T04:51:42.888Z,17.58
2023-04-16T04:52:15.263Z,16.83
2023-04-16T04:52:48.139Z,17.15
2023-04-16T04:53:20.834Z,19.15
2023-04-16T04:53:53.535Z,18.00
2023-04-16T04:54:26.651Z,18.60
2023-04-16T04:54:59.411Z,17.27
2023-04-16T04:55:31.876Z,20.02
2023-04-16T04:56:12.172Z,17.30
2023-04-16T04:56:46.749Z,19.08
2023-04-16T04:57:19.701Z,18.40
2023-04-16T04:57:52.210Z,18.25
2023-04-16T04:58:25.788Z,18.38
2023-04-16T04:58:58.309Z,15.82
2023-04-16T04:59:30.914Z,18.13
2023-04-16T05:00:04.485Z,17.55
2023-04-16T05:00:46.419Z,17.90
2023-04-16T05:01:18.811Z,18.90
2023-04-16T05:01:51.548Z,17.47
2023-04-16T05:02:23.981Z,16.92
2023-04-16T05:02:56.398Z,17.77
2023-04-16T05:03:28.845Z,15.40
2023-04-16T05:04:01.488Z,15.25
2023-04-16T05:04:33.928Z,13.63
2023-04-16T05:05:06.515Z,16.02
2023-04-16T05:05:41.642Z,15.90
2023-04-16T05:06:13.984Z,17.38
2023-04-16T05:06:46.439Z,16.48
2023-04-16T05:07:18.704Z,15.97
2023-04-16T05:07:51.121Z,18.02
2023-04-16T05:08:23.478Z,16.98
2023-04-16T05:08:55.812Z,15.50
2023-04-16T05:09:28.158Z,15.10
2023-04-16T05:10:00.895Z,15.15
2023-04-16T05:10:33.165Z,14.55
2023-04-16T05:11:05.803Z,14.20
2023-04-16T05:11:38.677Z,16.05
2023-04-16T05:12:10.942Z,14.40
2023-04-16T05:12:43.367Z,14.57
2023-04-16T05:13:17.202Z,15.02
2023-04-16T05:13:49.475Z,13.15
2023-04-16T05:14:21.771Z,15.38
2023-04-16T05:14:54.073Z,14.10
2023-04-16T05:15:26.512Z,14.95
2023-04-16T05:15:58.862Z,13.18
2023-04-16T05:16:31.179Z,14.05
2023-04-16T05:17:03.680Z,15.63
2023-04-16T05:17:36.265Z,14.65
2023-04-16T05:18:08.782Z,14.00
2023-04-16T05:18:41.622Z,13.70
2023-04-16T05:19:13.876Z,13.45
2023-04-16T05:19:46.278Z,13.77
2023-04-16T05:20:18.717Z,14.52
2023-04-16T05:20:51.462Z,14.00
2023-04-16T05:21:24.182Z,15.75
2023-04-16T05:21:56.509Z,13.52
2023-04-16T05:22:28.816Z,14.75
2023-04-16T05:23:01.090Z,12.65
2023-04-16T05:23:33.454Z,13.93
2023-04-16T05:24:06.433Z,12.50
2023-04-16T05:24:38.811Z,12.70
2023-04-16T05:25:11.353Z,14.82
2023-04-16T05:25:43.636Z,13.05
2023-04-16T05:26:16.136Z,12.13
2023-04-16T05:26:48.396Z,13.80
2023-04-16T05:27:20.710Z,12.40
2023-04-16T05:27:53.134Z,14.30
2023-04-16T05:28:25.477Z,11.27
2023-04-16T05:28:57.924Z,13.30
2023-04-16T05:29:30.406Z,11.15
2023-04-16T05:30:03.343Z,11.48
2023-04-16T05:30:35.831Z,12.55
2023-04-16T05:31:08.197Z,12.50
2023-04-16T05:31:41.210Z,12.20
2023-04-16T05:32:13.701Z,11.95
2023-04-16T05:32:46.059Z,10.57
2023-04-16T05:33:18.428Z,11.60
2023-04-16T05:33:50.841Z,11.65
2023-04-16T05:34:23.299Z,12.57
2023-04-16T05:34:55.778Z,11.32
2023-04-16T05:35:28.119Z,11.20
2023-04-16T05:36:00.612Z,11.10
2023-04-16T05:36:32.880Z,11.70
2023-04-16T05:37:05.223Z,13.60
2023-04-16T05:37:37.553Z,11.48
2023-04-16T05:38:10.493Z,12.00
2023-04-16T05:38:42.787Z,12.52
2023-04-16T05:39:16.911Z,13.05
2023-04-16T05:39:49.258Z,12.27
2023-04-16T05:40:21.595Z,12.70
2023-04-16T05:40:53.843Z,12.90
2023-04-16T05:41:26.316Z,13.43
2023-04-16T05:41:58.769Z,13.32
2023-04-16T05:42:31.424Z,12.00
2023-04-16T05:43:03.702Z,12.68
2023-04-16T05:43:36.138Z,12.30
2023-04-16T05:44:08.840Z,13.15
2023-04-16T05:44:41.378Z,13.13
2023-04-16T05:45:14.267Z,12.63
2023-04-16T05:45:46.788Z,11.40
2023-04-16T05:46:19.227Z,13.55
2023-04-16T05:46:52.888Z,12.10
2023-04-16T05:47:33.470Z,15.73
2023-04-16T05:48:13.111Z,12.75
2023-04-16T05:48:53.649Z,11.80
2023-04-16T05:49:32.817Z,11.23
2023-04-16T05:50:13.719Z,12.35
2023-04-16T05:50:53.108Z,11.82
2023-04-16T05:51:32.287Z,13.40
2023-04-16T05:52:14.468Z,12.50
2023-04-16T05:52:51.705Z,13.43
2023-04-16T05:53:28.539Z,12.68
2023-04-16T05:54:06.297Z,15.45
2023-04-16T05:54:42.128Z,12.10
2023-04-16T05:55:17.719Z,13.82
2023-04-16T05:55:53.574Z,12.70
2023-04-16T05:56:30.816Z,12.63
2023-04-16T05:57:07.866Z,11.60
2023-04-16T05:57:42.784Z,13.80
2023-04-16T05:58:26.344Z,12.10
2023-04-16T05:59:06.181Z,11.77
2023-04-16T05:59:43.264Z,11.48
2023-04-16T06:00:22.620Z,15.18
2023-04-16T06:00:58.730Z,12.00
2023-04-16T06:01:34.663Z,12.43
2023-04-16T06:02:14.479Z,12.07
2023-04-16T06:02:58.623Z,11.40
2023-04-16T06:03:54.392Z,11.80
2023-04-16T06:05:09.261Z,13.37
2023-04-16T06:06:24.451Z,12.00
2023-04-16T06:07:03.429Z,11.50
2023-04-16T06:07:40.440Z,12.60
2023-04-16T06:08:18.182Z,11.30
2023-04-16T06:08:54.295Z,12.25
2023-04-16T06:09:34.494Z,11.82
2023-04-16T06:10:13.108Z,16.35
2023-04-16T06:10:48.502Z,15.05
2023-04-16T06:11:25.020Z,13.25
2023-04-16T06:12:02.646Z,12.07
2023-04-16T06:12:40.413Z,14.23
2023-04-16T06:13:16.831Z,13.35
2023-04-16T06:13:53.295Z,14.20
2023-04-16T06:14:33.586Z,14.55
2023-04-16T06:15:11.202Z,12.00
2023-04-16T06:15:48.292Z,10.95
2023-04-16T06:16:25.246Z,13.88
2023-04-16T06:17:02.700Z,14.70
2023-04-16T06:17:41.518Z,13.15
2023-04-16T06:18:22.415Z,12.97
2023-04-16T06:18:59.288Z,13.95
2023-04-16T06:19:41.811Z,13.38
2023-04-16T06:20:22.123Z,12.43
2023-04-16T06:20:58.620Z,13.13
2023-04-16T06:21:35.307Z,13.55
2023-04-16T06:22:13.249Z,13.15
2023-04-16T06:22:51.389Z,14.45
2023-04-16T06:23:33.825Z,12.50
2023-04-16T06:24:12.745Z,12.38
2023-04-16T06:24:50.353Z,12.80
2023-04-16T06:25:31.020Z,12.10
2023-04-16T06:26:09.696Z,14.15
2023-04-16T06:26:50.835Z,13.25
2023-04-16T06:27:31.898Z,13.02
2023-04-16T06:28:10.017Z,13.20
2023-04-16T06:28:51.181Z,13.40
2023-04-16T06:29:40.371Z,13.00
2023-04-16T06:30:23.963Z,11.68
2023-04-16T06:31:06.520Z,11.75
2023-04-16T06:31:52.449Z,14.00
2023-04-16T06:32:29.891Z,12.70
2023-04-16T06:33:10.076Z,12.68
2023-04-16T06:33:52.248Z,12.02
2023-04-16T06:34:38.455Z,10.95
2023-04-16T06:35:16.308Z,10.82
2023-04-16T06:35:53.555Z,12.27
2023-04-16T06:36:31.299Z,10.57
2023-04-16T06:37:12.956Z,12.30
2023-04-16T06:37:54.042Z,10.75
2023-04-16T06:38:30.225Z,12.57
2023-04-16T06:39:10.344Z,11.50
2023-04-16T06:39:48.419Z,11.18
2023-04-16T06:40:25.891Z,10.77
2023-04-16T06:41:02.686Z,9.88
2023-04-16T06:41:43.724Z,10.18
2023-04-16T06:42:26.136Z,11.18
2023-04-16T06:43:03.112Z,9.93
2023-04-16T06:43:40.670Z,10.10
2023-04-16T06:44:16.845Z,10.45
2023-04-16T06:44:53.460Z,11.10
2023-04-16T06:45:34.068Z,10.75
2023-04-16T06:46:12.821Z,11.00
2023-04-16T06:46:52.470Z,10.77
2023-04-16T06:47:32.248Z,10.13
2023-04-16T06:48:07.104Z,10.98
2023-04-16T06:48:43.430Z,9.80
2023-04-16T06:49:16.750Z,8.65
2023-04-16T06:49:53.145Z,9.00
2023-04-16T06:50:28.998Z,9.32
2023-04-16T06:51:02.042Z,12.87
2023-04-16T06:51:34.780Z,11.07
2023-04-16T06:52:07.284Z,10.25
2023-04-16T06:52:39.728Z,8.32
2023-04-16T06:53:12.064Z,10.35
2023-04-16T06:53:44.467Z,9.65
2023-04-16T06:54:17.135Z,9.25
2023-04-16T06:54:49.582Z,9.77
2023-04-16T06:55:22.006Z,9.20
2023-04-16T06:55:54.437Z,10.35
2023-04-16T06:56:26.736Z,9.23
2023-04-16T06:56:59.036Z,9.02
2023-04-16T06:57:31.463Z,10.05
2023-04-16T06:58:04.032Z,11.30
2023-04-16T06:58:36.551Z,7.85
2023-04-16T06:59:08.970Z,8.38
2023-04-16T06:59:41.550Z,7.93
2023-04-16T07:00:13.871Z,8.43
2023-04-16T07:00:46.374Z,9.10
2023-04-16T07:01:18.967Z,8.57
2023-04-16T07:01:52.276Z,8.00
2023-04-16T07:02:24.888Z,8.13
2023-04-16T07:02:58.568Z,8.60
2023-04-16T07:03:31.674Z,8.02
2023-04-16T07:04:04.588Z,8.30
2023-04-16T07:04:36.978Z,6.82
2023-04-16T07:05:09.339Z,8.40
2023-04-16T07:05:41.708Z,6.72
2023-04-16T07:06:14.207Z,7.47
2023-04-16T07:06:46.494Z,7.55
2023-04-16T07:07:19.183Z,6.53
2023-04-16T07:07:51.478Z,7.78
2023-04-16T07:08:23.774Z,6.95
2023-04-16T07:08:56.224Z,6.72
2023-04-16T07:09:28.509Z,7.63
2023-04-16T07:10:00.981Z,6.70
2023-04-16T07:10:33.382Z,6.88
2023-04-16T07:11:05.745Z,8.05
2023-04-16T07:11:38.070Z,6.47
2023-04-16T07:12:11.596Z,6.88
2023-04-16T07:12:44.081Z,7.33
2023-04-16T07:13:16.636Z,6.88
2023-04-16T07:13:49.278Z,8.82
2023-04-16T07:14:21.696Z,7.25
2023-04-16T07:14:53.954Z,7.65
2023-04-16T07:15:26.204Z,7.13
2023-04-16T07:15:58.513Z,6.57
2023-04-16T07:16:30.991Z,6.72
2023-04-16T07:17:03.320Z,7.20
2023-04-16T07:17:35.753Z,7.47
2023-04-16T07:18:08.100Z,7.07
2023-04-16T07:18:40.557Z,8.40